createdAt,value
2022-12-13T04:05:10.440Z,944.23
2022-12-13T04:08:21.635Z,952.63
2022-12-13T04:11:43.568Z,929.77
2022-12-13T04:14:53.480Z,898.27
2022-12-13T04:18:03.284Z,907.87
2022-12-13T04:21:14.377Z,921.40
2022-12-13T04:24:30.948Z,928.97
2022-12-13T04:27:41.821Z,917.10
2022-12-13T04:30:52.766Z,900.57
2022-12-13T04:34:03.655Z,922.63
2022-12-13T04:37:15.082Z,894.60
2022-12-13T04:40:25.096Z,884.23
2022-12-13T04:43:34.931Z,936.93
2022-12-13T04:46:44.570Z,942.70
2022-12-13T04:49:55.091Z,920.10
2022-12-13T04:53:06.211Z,899.80
2022-12-13T04:56:16.041Z,898.30
2022-12-13T04:59:26.234Z,899.87
2022-12-13T05:02:36.417Z,884.73
2022-12-13T05:05:46.130Z,893.77
2022-12-13T05:09:00.803Z,878.70
2022-12-13T05:12:12.991Z,906.20
2022-12-13T05:15:36.428Z,907.10
2022-12-13T05:18:46.155Z,908.17
2022-12-13T05:21:55.802Z,908.03
2022-12-13T05:25:12.253Z,911.43
2022-12-13T05:28:28.518Z,925.87
2022-12-13T05:31:38.512Z,922.23
2022-12-13T05:34:48.309Z,914.17
2022-12-13T05:37:58.049Z,927.73
2022-12-13T05:41:17.392Z,915.03
2022-12-13T05:44:27.240Z,929.70
2022-12-13T05:47:36.966Z,913.87
2022-12-13T05:50:46.814Z,905.47
2022-12-13T05:53:56.531Z,912.03
2022-12-13T05:57:07.644Z,930.73
2022-12-13T06:00:28.340Z,914.87
2022-12-13T06:03:40.002Z,919.40
2022-12-13T06:06:51.267Z,900.93
2022-12-13T06:10:09.752Z,903.20
2022-12-13T06:13:31.960Z,915.67
2022-12-13T06:16:42.321Z,908.77
2022-12-13T06:19:52.543Z,912.87
2022-12-13T06:23:02.238Z,900.90
2022-12-13T06:26:11.955Z,922.53
2022-12-13T06:29:25.792Z,923.20
2022-12-13T06:32:39.966Z,894.67
2022-12-13T06:35:52.814Z,895.33
2022-12-13T06:39:03.557Z,892.90
2022-12-13T06:42:21.905Z,912.43
2022-12-13T06:45:33.595Z,907.90
2022-12-13T06:48:45.133Z,897.33
2022-12-13T06:51:54.829Z,890.40
2022-12-13T06:55:05.886Z,906.50
2022-12-13T06:58:15.690Z,899.63
2022-12-13T07:01:26.798Z,886.57
2022-12-13T07:04:36.657Z,909.73
2022-12-13T07:07:46.326Z,892.00
2022-12-13T07:10:56.735Z,908.43
2022-12-13T07:14:06.488Z,913.93
2022-12-13T07:17:32.295Z,912.83
2022-12-13T07:20:44.589Z,891.20
2022-12-13T11:34:32.856Z,716.33
2022-12-13T11:37:50.531Z,738.27
2022-12-13T11:41:11.238Z,692.60
2022-12-13T11:44:29.466Z,724.40
2022-12-13T11:47:45.086Z,702.90
2022-12-13T11:50:57.331Z,709.30
2022-12-13T11:58:16.614Z,678.37
2022-12-13T12:01:38.123Z,704.67
2022-12-13T12:04:59.652Z,705.63
2022-12-13T12:08:31.065Z,722.50
2022-12-13T12:11:50.022Z,699.73
2022-12-13T12:15:15.626Z,726.10
2022-12-13T12:18:27.533Z,682.33
2022-12-13T12:22:12.790Z,701.73
2022-12-13T12:25:29.149Z,646.10
2022-12-13T12:29:01.283Z,651.37
2022-12-13T12:32:23.515Z,752.23
2022-12-13T12:35:57.665Z,628.23
2022-12-13T12:39:26.231Z,645.07
2022-12-13T12:43:13.739Z,776.67
2022-12-13T12:47:08.975Z,745.63
2022-12-13T12:50:24.392Z,712.30
2022-12-13T12:53:43.020Z,639.53
2022-12-13T12:57:07.880Z,774.40
2022-12-13T13:00:22.920Z,748.00
2022-12-13T13:03:37.450Z,648.17
2022-12-13T13:06:52.918Z,804.53
2022-12-13T13:10:16.320Z,839.40
2022-12-13T13:13:36.416Z,808.83
2022-12-13T13:16:59.036Z,786.47
2022-12-13T13:20:19.285Z,718.97
2022-12-13T13:23:39.929Z,682.40
2022-12-13T13:26:53.686Z,695.93
2022-12-13T13:30:08.865Z,641.73
2022-12-13T13:33:45.167Z,790.60
2022-12-13T13:36:57.423Z,806.30
2022-12-13T13:40:31.765Z,798.80
2022-12-13T13:43:42.699Z,763.63
2022-12-13T13:47:12.628Z,818.13
2022-12-13T13:50:43.868Z,834.73
2022-12-13T13:54:19.627Z,811.37
2022-12-13T13:58:10.970Z,755.60
2022-12-13T14:01:40.532Z,790.83
2022-12-13T14:05:16.617Z,862.53
2022-12-13T14:08:36.999Z,821.30
2022-12-13T14:12:08.588Z,794.43
2022-12-13T14:15:55.588Z,809.63
2022-12-13T14:19:28.820Z,786.07
2022-12-13T14:22:44.607Z,791.47
2022-12-13T14:26:13.987Z,805.47
2022-12-13T14:29:29.419Z,801.33
2022-12-13T14:32:41.009Z,781.93
2022-12-13T14:35:53.627Z,791.03
2022-12-13T14:39:07.217Z,811.73
2022-12-13T14:42:37.756Z,798.50
2022-12-13T14:45:57.410Z,796.23
2022-12-13T14:49:13.000Z,826.50
2022-12-13T14:52:27.945Z,803.93
2022-12-13T14:55:38.749Z,811.73
2022-12-13T14:58:56.465Z,814.00
2022-12-13T15:02:07.273Z,847.10
2022-12-13T15:05:28.954Z,868.27
2022-12-13T15:08:42.059Z,801.17
2022-12-13T15:11:54.625Z,847.97
2022-12-13T15:15:18.920Z,897.40
2022-12-13T15:18:33.068Z,840.80
2022-12-13T15:22:01.738Z,811.30
2022-12-13T15:25:16.614Z,798.93
2022-12-13T15:28:32.671Z,848.23
2022-12-13T15:31:48.989Z,812.17
2022-12-13T15:35:16.649Z,812.23
2022-12-13T15:38:28.764Z,811.43
2022-12-13T15:41:46.741Z,789.87
2022-12-13T15:44:59.862Z,799.20
2022-12-13T15:48:26.192Z,851.53
2022-12-13T15:51:55.772Z,828.10
2022-12-13T15:55:28.457Z,916.30
2022-12-13T15:58:39.791Z,918.43
2022-12-13T16:01:57.873Z,867.13
2022-12-13T16:05:26.646Z,894.90
2022-12-13T16:08:39.904Z,848.20
2022-12-13T16:11:54.692Z,856.53
2022-12-13T16:15:20.263Z,888.63
2022-12-13T16:18:45.892Z,886.60
2022-12-13T16:21:58.223Z,895.90
2022-12-13T16:25:12.236Z,911.37
2022-12-13T16:28:26.272Z,880.57
2022-12-13T16:31:37.287Z,900.53
2022-12-13T16:34:48.408Z,863.60
2022-12-13T16:38:09.128Z,868.67
2022-12-13T16:41:22.301Z,841.73
2022-12-13T16:44:36.473Z,880.57
2022-12-13T16:47:49.801Z,920.23
2022-12-13T16:51:00.662Z,883.60
2022-12-13T16:54:12.690Z,874.37
2022-12-13T16:57:23.497Z,927.00
2022-12-13T17:00:34.455Z,888.87
2022-12-13T17:03:45.370Z,874.33
2022-12-13T17:06:56.203Z,873.23
2022-12-13T17:10:09.356Z,887.80
2022-12-13T17:13:20.127Z,848.67
2022-12-13T17:16:30.835Z,928.30
2022-12-13T17:19:41.696Z,911.93
2022-12-13T17:22:52.717Z,987.50
2022-12-13T17:26:07.274Z,966.90
2022-12-13T17:29:18.076Z,974.93
2022-12-13T17:32:29.675Z,859.57
2022-12-13T17:35:40.985Z,886.33
2022-12-13T17:38:52.265Z,930.77
2022-12-13T17:42:04.804Z,934.30
2022-12-13T17:45:16.966Z,918.90
2022-12-13T17:48:29.699Z,886.17
2022-12-13T17:51:43.326Z,880.40
2022-12-13T17:55:04.629Z,892.10
2022-12-13T17:58:16.577Z,912.93
2022-12-13T18:01:30.523Z,909.93
2022-12-13T18:04:42.545Z,911.77
2022-12-13T18:07:53.278Z,908.90
2022-12-13T18:14:38.013Z,916.87
2022-12-13T18:18:10.804Z,973.70
2022-12-13T18:21:20.759Z,929.80
2022-12-13T18:24:32.739Z,1000.13
2022-12-13T18:27:44.132Z,961.40
2022-12-13T18:31:00.066Z,913.17
2022-12-13T18:34:11.950Z,885.97
2022-12-13T18:37:25.260Z,887.87
2022-12-13T18:40:41.963Z,889.37
2022-12-13T18:44:00.003Z,861.53
2022-12-13T18:47:19.449Z,868.27
2022-12-13T18:50:35.743Z,838.10
2022-12-13T18:53:50.051Z,790.50
2022-12-13T18:57:05.060Z,855.00
2022-12-13T19:00:19.439Z,840.13
2022-12-13T19:03:37.845Z,900.00
2022-12-13T19:06:51.548Z,852.87
2022-12-13T19:10:08.612Z,814.30
2022-12-13T19:13:23.841Z,850.17
2022-12-13T19:16:37.784Z,810.10
2022-12-13T19:19:54.545Z,827.67
2022-12-13T19:23:08.858Z,814.40
2022-12-13T19:26:24.066Z,812.60
2022-12-13T19:29:42.358Z,841.40
2022-12-13T19:32:56.792Z,791.93
2022-12-13T19:36:12.837Z,836.23
2022-12-13T19:39:27.492Z,886.13
2022-12-13T19:42:41.504Z,842.00
2022-12-13T19:45:55.801Z,800.53
2022-12-13T19:49:12.649Z,830.80
2022-12-13T19:52:28.589Z,821.03
2022-12-13T19:55:48.246Z,815.27
2022-12-13T19:59:02.822Z,818.87
2022-12-13T20:02:17.936Z,856.10
2022-12-13T20:05:31.774Z,902.10
2022-12-13T20:08:53.569Z,832.60
2022-12-13T20:12:07.302Z,824.10
2022-12-13T20:15:21.565Z,830.40
2022-12-13T20:18:38.894Z,801.30
2022-12-13T20:21:57.069Z,811.90
2022-12-13T20:25:13.353Z,812.20
2022-12-13T20:28:27.522Z,797.10
2022-12-13T20:31:48.356Z,806.27
2022-12-13T20:35:02.625Z,797.00
2022-12-13T20:38:16.328Z,839.20
2022-12-13T20:41:36.675Z,828.97
2022-12-13T20:44:52.269Z,811.17
2022-12-13T20:48:05.853Z,815.43
2022-12-13T20:51:21.336Z,764.23
2022-12-13T20:54:35.226Z,818.90
2022-12-13T20:57:53.343Z,818.30
2022-12-13T21:01:05.159Z,845.67
2022-12-13T21:04:15.835Z,857.20
2022-12-13T21:07:40.348Z,872.73
2022-12-13T21:10:51.465Z,859.13
2022-12-13T21:14:11.016Z,852.53
2022-12-13T21:17:24.197Z,781.60
2022-12-13T21:20:35.057Z,859.07
2022-12-13T21:23:45.868Z,902.77
2022-12-13T21:26:57.719Z,854.13
2022-12-13T21:30:10.526Z,854.73
2022-12-13T21:33:21.294Z,873.90
2022-12-13T21:36:35.357Z,830.07
2022-12-13T21:39:46.338Z,831.50
2022-12-13T21:42:56.996Z,843.13
2022-12-13T21:46:10.802Z,849.63
2022-12-13T21:49:21.429Z,807.30
2022-12-13T21:52:34.458Z,804.43
2022-12-13T21:55:45.457Z,813.60
2022-12-13T21:59:09.388Z,834.33
2022-12-13T22:02:22.453Z,848.47
2022-12-13T22:05:33.263Z,827.37
2022-12-13T22:08:44.079Z,824.30
2022-12-13T22:11:54.805Z,794.90
2022-12-13T22:15:07.184Z,812.70
2022-12-13T22:18:19.006Z,845.07
2022-12-13T22:21:29.766Z,790.63
2022-12-13T22:24:40.557Z,794.00
2022-12-13T22:27:51.208Z,841.57
2022-12-13T22:31:02.067Z,797.40
2022-12-13T22:34:14.062Z,821.17
2022-12-13T22:37:26.023Z,849.77
2022-12-13T22:40:39.731Z,859.57
2022-12-13T22:43:50.528Z,830.10
2022-12-13T22:47:01.449Z,798.60
2022-12-13T22:50:13.400Z,851.23
2022-12-13T22:53:24.143Z,818.83
2022-12-13T22:56:35.011Z,837.97
2022-12-13T22:59:45.375Z,844.13
2022-12-13T23:02:56.510Z,840.73
2022-12-13T23:06:10.323Z,816.70
2022-12-13T23:09:21.049Z,796.33
2022-12-13T23:12:42.760Z,867.00
2022-12-13T23:15:53.525Z,822.83
2022-12-13T23:19:32.104Z,801.77
2022-12-13T23:22:37.334Z,781.33
2022-12-13T23:25:49.025Z,776.90
2022-12-13T23:29:01.389Z,771.13
2022-12-13T23:32:12.194Z,798.73
2022-12-13T23:35:23.283Z,836.43
2022-12-13T23:38:35.757Z,832.67
